• Join FlightAware (Why Join?)
  • Login
  • US Flag 
10:19PM EST


 

Airport Tracker/Info


-or-


 

Live Flight TrackerFlight Track Log ✈ BJS439 ✈ 20-Apr-2013 ✈ KRDU - KBED

Flight Track Log - Related Links

Times and Time Zones

All times are in EDT time to prevent confusion due to time zone crossing. See the BJS439 flight status page for this flight to view local times or setup timezone preferences in your user account.

Time Position Orientation Groundspeed Altitude Reporting Facility
EDT Latitude Longitude Course Direction KTS MPH feet Rate Location/Type
09:52AM 35.8950 -78.7636 22° Northeast 151 174 3,100  Level Washington Center
09:54AM 36.0069 -78.7067 22° Northeast 258 297 8,800 2,760 Climbing Washington Center
09:55AM 36.0889 -78.6867 11° North 265 305 11,700 2,460 Climbing Washington Center
09:56AM 36.1961 -78.6550 13° North 307 353 13,800 3,000 Climbing Washington Center
09:57AM 36.3139 -78.6233 12° North 386 444 17,800 3,900 Climbing Washington Center
09:58AM 36.4358 -78.5867 14° North 419 482 21,600 2,880 Climbing Washington Center
09:59AM 36.5600 -78.5397 17° North 446 513 23,600 2,340 Climbing Washington Center
10:00AM 36.6939 -78.4414 30° Northeast 479 551 26,300 1,800 Climbing Washington Center
10:01AM 36.8294 -78.3503 28° Northeast 509 586 27,300 840 Climbing Washington Center
10:02AM 36.9586 -78.2639 28° Northeast 557 641 28,000 300 Climbing Washington Center
10:03AM 37.0994 -78.1203 39° Northeast 587 676 28,000 540 Level Washington Center
10:04AM 37.2192 -77.9808 43° Northeast 587 676 29,100 1,500 Climbing Washington Center
10:05AM 37.3286 -77.8250 49° Northeast 582 670 31,100 2,160 Climbing Washington Center
10:06AM 37.4375 -77.6792 47° Northeast 582 670 33,500 2,340 Climbing Washington Center
10:07AM 37.5586 -77.5539 39° Northeast 567 652 35,800 2,160 Climbing Washington Center
10:08AM 37.6753 -77.4336 39° Northeast 547 629 37,900 1,800 Climbing Washington Center
10:09AM 37.7897 -77.3131 40° Northeast 542 624 39,400 1,200 Climbing Washington Center
10:10AM 37.9061 -77.1892 40° Northeast 532 612 40,400 780 Climbing Washington Center
10:11AM 38.0203 -77.0678 40° Northeast 532 612 41,000 300 Climbing Washington Center
10:12AM 38.1386 -76.9433 40° Northeast 539 620 41,000  Level Washington Center
10:13AM 38.2567 -76.8158 40° Northeast 544 626 41,000  Level Washington Center
10:14AM 38.3747 -76.6908 40° Northeast 544 626 41,000  Level Washington Center
10:15AM 38.4967 -76.5600 40° Northeast 555 639 41,000  Level Washington Center
10:16AM 38.6164 -76.4286 41° Northeast 560 644 41,000  Level Washington Center
10:17AM 38.7342 -76.3022 40° Northeast 560 644 41,000  Level Washington Center
10:18AM 38.8514 -76.1728 41° Northeast 560 644 41,000  Level Washington Center
10:19AM 38.9644 -76.0533 39° Northeast 565 650 41,000  Level Washington Center
10:20AM 39.0817 -75.9231 41° Northeast 565 650 41,000  Level Washington Center
10:21AM 39.1986 -75.7953 40° Northeast 560 644 41,000  Level Washington Center
10:22AM 39.3175 -75.6639 41° Northeast 560 644 41,000  Level Washington Center
10:23AM 39.4344 -75.5325 41° Northeast 560 644 41,000  Level Washington Center
10:24AM 39.5508 -75.4031 41° Northeast 554 638 41,000  Level Washington Center
10:26AM 39.7778 -75.1008 46° Northeast 554 638 41,000 -180 Level New York Center
10:27AM 39.8808 -74.9583 47° Northeast 559 643 40,600 -1,740 Descending New York Center
10:28AM 39.9861 -74.8047 48° Northeast 559 643 37,600 -3,060 Descending New York Center
10:29AM 40.1044 -74.6353 48° Northeast 569 655 34,400 -2,340 Descending New York Center
10:30AM 40.1886 -74.4769 55° Northeast 582 670 33,000 -720 Descending New York Center
10:31AM 40.2775 -74.3022 56° Northeast 582 670 33,000  Level New York Center
10:32AM 40.3681 -74.1297 55° Northeast 576 663 33,000 -60 Level New York Center
10:33AM 40.4561 -73.9542 57° Northeast 576 663 32,900 -1,860 Descending New York Center
10:35AM 40.6164 -73.6458 56° Northeast 547 629 27,800 -2,700 Descending Boston Center
10:36AM 40.7033 -73.4750 56° Northeast 547 629 25,300 -2,520 Descending Boston Center
10:37AM 40.7903 -73.3092 55° Northeast 547 629 22,800 -2,100 Descending Boston Center
10:38AM 40.9039 -73.1706 43° Northeast 540 621 21,100 -1,380 Descending Boston Center
10:39AM 41.0275 -73.0344 40° Northeast 525 604 20,100 -1,080 Descending Boston Center
10:40AM 41.1508 -72.9364 31° Northeast 520 598 19,000 -600 Descending Boston Center
10:41AM 41.2472 -72.8597 31° Northeast 513 590 19,000 -540 Level Boston Center
10:42AM 41.3914 -72.7500 30° Northeast 491 565 18,000 -1,440 Descending Boston Center
10:43AM 41.5083 -72.6592 30° Northeast 491 565 16,200 -1,500 Descending Boston Center
10:44AM 41.6208 -72.5650 32° Northeast 486 559 15,000 -900 Descending Boston Center
10:45AM 41.7253 -72.4594 37° Northeast 469 540 14,500 -780 Descending Boston Center
10:45AM 41.7503 -72.4317 40° Northeast 466 536 14,000 -2,100 Descending Boston Center
10:46AM 41.8211 -72.3481 41° Northeast 462 532 12,400 -1,920 Descending Boston Center
10:47AM 41.8833 -72.2811 39° Northeast 458 527 11,500 -1,320 Descending Boston Center
10:47AM 41.9167 -72.2419 41° Northeast 452 520 11,100 -540 Descending Boston Center
10:48AM 41.9792 -72.1692 41° Northeast 433 498 11,000 -240 Descending Boston Center
10:48AM 42.0081 -72.1383 38° Northeast 434 499 10,900 -600 Descending Boston Center
10:49AM 42.0642 -72.0767 39° Northeast 385 443 10,400 -1,500 Descending Boston Center
10:50AM 42.1411 -71.9922 39° Northeast 358 412 8,400 -1,980 Descending Boston Center
10:51AM 42.2117 -71.9131 40° Northeast 332 382 6,400 -1,620 Descending Boston Center
10:52AM 42.2822 -71.8367 39° Northeast 279 321 5,000 -480 Descending Boston Center
10:54AM 42.4000 -71.6500 49° Northeast 284 327 4,900 -300 Descending KA90
10:55AM 42.4333 -71.5667 62° Northeast 275 316 4,100 -1,020 Descending KA90
10:56AM 42.4667 -71.4667 66° East 267 307 2,900 -600 Descending KA90
10:57AM 42.5000 -71.4000 56° Northeast 228 262 2,900 -60 Level KA90
10:58AM 42.5167 -71.3167 75° East 229 264 2,800 -540 Descending KA90
10:59AM 42.5167 -71.2333 90° East 209 241 1,900 -600 Descending KA90
11:00AM 42.5000 -71.2000 124° Southeast 170 196 1,700 -360 Descending KA90
11:01AM 42.4667 -71.2167 200° South 126 145 1,200 -660 Descending KA90
11:02AM 42.4667 -71.2500 270° West 121 139 400 -840 Descending KA90
11:04AM 42.4667 -71.2833 270° West  Level FlightAware Approximate